createdAt,value
2022-10-13T00:00:29.565Z,55.16
2022-10-13T00:03:02.913Z,54.67
2022-10-13T00:05:34.849Z,54.94
2022-10-13T00:08:03.140Z,54.81
2022-10-13T00:10:31.103Z,55.05
2022-10-13T00:13:05.086Z,54.79
2022-10-13T00:15:32.766Z,54.90
2022-10-13T00:18:00.212Z,55.32
2022-10-13T00:20:30.244Z,55.51
2022-10-13T00:23:01.469Z,55.56
2022-10-13T00:25:29.284Z,55.52
2022-10-13T00:28:00.753Z,56.13
2022-10-13T00:30:40.961Z,55.13
2022-10-13T00:33:09.561Z,54.83
2022-10-13T00:35:51.167Z,55.44
2022-10-13T00:38:22.269Z,54.55
2022-10-13T00:41:06.436Z,54.94
2022-10-13T00:44:08.932Z,54.82
2022-10-13T00:46:40.183Z,54.59
2022-10-13T00:49:17.600Z,54.79
2022-10-13T00:51:50.380Z,54.65
2022-10-13T00:54:25.902Z,54.93
2022-10-13T00:57:00.256Z,54.76
2022-10-13T01:02:39.992Z,54.67
2022-10-13T01:05:09.954Z,54.38
2022-10-13T01:07:50.068Z,54.32
2022-10-13T01:10:51.336Z,54.82
2022-10-13T01:13:43.881Z,54.58
2022-10-13T01:16:41.881Z,54.57
2022-10-13T01:19:58.927Z,54.59
2022-10-13T01:23:05.252Z,54.52
2022-10-13T01:25:49.174Z,54.99
2022-10-13T01:28:41.411Z,54.49
2022-10-13T01:31:28.439Z,54.42
2022-10-13T01:34:07.068Z,54.38
2022-10-13T01:37:28.304Z,54.16
2022-10-13T01:40:24.418Z,54.30
2022-10-13T01:43:32.296Z,54.64
2022-10-13T01:46:21.998Z,54.56
2022-10-13T01:48:52.909Z,54.65
2022-10-13T01:51:40.818Z,54.93
2022-10-13T01:54:24.956Z,54.91
2022-10-13T01:57:11.738Z,54.80
2022-10-13T02:00:05.226Z,54.91
2022-10-13T02:03:10.267Z,54.51
2022-10-13T02:05:50.432Z,54.66
2022-10-13T02:09:03.777Z,54.92
2022-10-13T02:11:43.914Z,55.22
2022-10-13T02:14:32.279Z,54.84
2022-10-13T02:17:11.923Z,55.00
2022-10-13T02:19:54.291Z,54.97
2022-10-13T02:22:31.192Z,55.14
2022-10-13T02:25:05.323Z,55.55
2022-10-13T02:27:32.844Z,55.30
2022-10-13T02:30:03.422Z,55.09
2022-10-13T02:32:34.261Z,55.08
2022-10-13T02:35:03.967Z,54.65
2022-10-13T02:37:34.565Z,55.04
2022-10-13T02:40:06.590Z,55.37
2022-10-13T02:42:34.603Z,55.20
2022-10-13T02:45:13.913Z,55.18
2022-10-13T02:47:47.898Z,55.10
2022-10-13T02:50:21.013Z,54.87
2022-10-13T02:52:54.206Z,54.41
2022-10-13T02:55:22.262Z,54.96
2022-10-13T02:58:15.982Z,55.01
2022-10-13T03:01:15.273Z,54.63
2022-10-13T03:03:49.301Z,54.87
2022-10-13T03:06:22.677Z,54.56
2022-10-13T03:08:55.691Z,54.76
2022-10-13T03:11:34.600Z,54.63
2022-10-13T03:14:07.399Z,54.98
2022-10-13T03:16:50.896Z,54.80
2022-10-13T03:19:26.023Z,54.76
2022-10-13T03:21:53.274Z,54.59
2022-10-13T03:24:41.461Z,54.62
2022-10-13T03:27:16.541Z,54.37
2022-10-13T03:29:51.173Z,54.00
2022-10-13T03:32:30.379Z,53.80
2022-10-13T03:35:07.844Z,54.55
2022-10-13T03:37:35.399Z,54.36
2022-10-13T03:40:05.642Z,54.28
2022-10-13T03:42:40.128Z,54.17
2022-10-13T03:45:07.912Z,54.56
2022-10-13T03:47:39.340Z,54.42
2022-10-13T03:50:10.398Z,54.58
2022-10-13T03:52:38.308Z,54.59
2022-10-13T03:55:06.013Z,54.69
2022-10-13T03:57:40.045Z,55.09
2022-10-13T04:00:14.074Z,54.69
2022-10-13T04:02:53.739Z,54.96
2022-10-13T04:05:26.491Z,55.69
2022-10-13T04:08:01.254Z,55.39
2022-10-13T04:10:31.221Z,55.38
2022-10-13T04:13:09.058Z,55.11
2022-10-13T04:15:49.272Z,55.26
2022-10-13T04:18:16.727Z,55.13
2022-10-13T04:20:51.002Z,55.31
2022-10-13T04:23:20.886Z,55.32
2022-10-13T04:26:01.015Z,55.10
2022-10-13T04:28:38.382Z,55.68
2022-10-13T04:31:09.132Z,55.78
2022-10-13T04:33:39.421Z,55.71
2022-10-13T04:36:16.030Z,56.00
2022-10-13T04:38:47.287Z,55.98
2022-10-13T04:41:16.901Z,55.68
2022-10-13T04:43:47.568Z,55.44
2022-10-13T04:46:24.258Z,55.91
2022-10-13T04:49:01.866Z,56.06
2022-10-13T04:51:36.552Z,55.75
2022-10-13T04:54:10.767Z,56.08
2022-10-13T04:56:49.866Z,55.84
2022-10-13T04:59:26.662Z,55.77
2022-10-13T05:01:57.622Z,55.82
2022-10-13T05:04:33.331Z,55.62
2022-10-13T05:07:17.589Z,55.81
2022-10-13T05:09:53.592Z,55.41
2022-10-13T05:12:27.158Z,55.34
2022-10-13T05:14:58.247Z,55.79
2022-10-13T05:17:35.530Z,56.14
2022-10-13T05:20:14.871Z,56.16
2022-10-13T05:22:44.808Z,56.18
2022-10-13T05:25:15.982Z,55.56
2022-10-13T05:27:46.537Z,55.88
2022-10-13T05:30:17.355Z,55.77
2022-10-13T05:32:53.953Z,56.29
2022-10-13T05:35:27.303Z,56.30
2022-10-13T05:37:57.287Z,56.50
2022-10-13T05:40:31.653Z,55.93
2022-10-13T05:43:01.159Z,55.81
2022-10-13T05:45:33.319Z,55.92
2022-10-13T05:48:01.557Z,55.36
2022-10-13T05:50:31.278Z,55.43
2022-10-13T05:53:01.765Z,55.69
2022-10-13T05:55:32.166Z,55.42
2022-10-13T05:57:59.479Z,55.62
2022-10-13T06:00:28.131Z,55.59
2022-10-13T06:03:25.078Z,55.91
2022-10-13T06:06:10.427Z,55.95
2022-10-13T06:08:39.444Z,55.92
2022-10-13T06:11:21.938Z,55.49
2022-10-13T06:13:51.789Z,55.90
2022-10-13T06:18:47.372Z,55.60
2022-10-13T06:21:17.665Z,55.47
2022-10-13T06:23:45.093Z,55.41
2022-10-13T06:26:15.290Z,55.65
2022-10-13T06:28:50.451Z,55.53
2022-10-13T06:31:21.520Z,55.90
2022-10-13T06:33:50.119Z,55.97
2022-10-13T06:36:20.956Z,55.18
2022-10-13T06:38:48.095Z,55.60
2022-10-13T06:41:23.985Z,55.74
2022-10-13T06:43:58.044Z,55.28
2022-10-13T06:46:31.540Z,55.15
2022-10-13T06:48:59.657Z,55.15
2022-10-13T06:51:34.873Z,55.07
2022-10-13T06:54:08.716Z,55.52
2022-10-13T06:56:37.386Z,55.46
2022-10-13T06:59:10.861Z,54.64
2022-10-13T07:01:43.027Z,55.01
2022-10-13T07:04:13.260Z,55.15
2022-10-13T07:06:44.086Z,55.16
2022-10-13T07:09:12.364Z,55.31
2022-10-13T07:11:39.541Z,55.21
2022-10-13T07:14:07.072Z,54.90
2022-10-13T07:16:34.522Z,54.88
2022-10-13T07:19:02.281Z,54.66
2022-10-13T07:21:31.430Z,54.55
2022-10-13T07:24:06.683Z,54.78
2022-10-13T07:26:37.846Z,54.62
2022-10-13T07:29:05.645Z,54.58
2022-10-13T07:31:32.910Z,54.55
2022-10-13T07:34:01.666Z,54.40
2022-10-13T07:36:30.389Z,54.11
2022-10-13T07:39:04.799Z,54.24
2022-10-13T07:41:38.361Z,54.08
2022-10-13T07:44:08.899Z,53.69
2022-10-13T07:46:38.518Z,53.46
2022-10-13T07:49:06.099Z,53.43
2022-10-13T07:51:35.941Z,53.26
2022-10-13T07:54:03.683Z,53.20
2022-10-13T07:56:35.776Z,53.02
2022-10-13T07:59:09.891Z,52.41
2022-10-13T08:01:41.394Z,52.36
2022-10-13T08:04:14.207Z,52.05
2022-10-13T08:06:45.402Z,51.41
2022-10-13T08:09:21.231Z,50.56
2022-10-13T08:11:48.963Z,50.09
2022-10-13T08:14:16.478Z,49.26
2022-10-13T08:16:49.919Z,48.46
2022-10-13T08:19:26.742Z,48.21
2022-10-13T08:21:59.522Z,47.48
2022-10-13T08:24:33.925Z,46.36
2022-10-13T08:27:04.848Z,46.12
2022-10-13T08:29:37.436Z,45.86
2022-10-13T08:32:05.030Z,45.64
2022-10-13T08:34:34.946Z,45.04
2022-10-13T08:37:05.107Z,44.63
2022-10-13T08:39:43.274Z,43.89
2022-10-13T08:42:19.003Z,43.46
2022-10-13T08:48:05.114Z,42.38
2022-10-13T08:50:38.506Z,41.55
2022-10-13T08:53:21.330Z,40.96
2022-10-13T08:55:59.059Z,41.00
2022-10-13T08:58:41.698Z,38.63
2022-10-13T09:01:18.880Z,40.13
2022-10-13T09:04:26.870Z,38.53
2022-10-13T09:07:12.192Z,38.98
2022-10-13T09:09:42.266Z,39.93
2022-10-13T09:12:12.898Z,39.38
2022-10-13T09:14:59.323Z,40.11
2022-10-13T09:20:20.855Z,38.44
2022-10-13T09:23:17.815Z,37.76
2022-10-13T09:25:50.892Z,37.98
2022-10-13T09:28:28.023Z,38.08
2022-10-13T09:31:11.703Z,37.95
2022-10-13T09:33:41.877Z,39.78
2022-10-13T09:36:12.109Z,39.28
2022-10-13T09:38:44.943Z,39.64
2022-10-13T09:41:15.256Z,39.15
2022-10-13T09:43:51.322Z,39.27
2022-10-13T09:46:47.135Z,39.46
2022-10-13T09:49:44.841Z,39.43
2022-10-13T09:52:23.115Z,39.69
2022-10-13T09:55:03.280Z,40.25
2022-10-13T09:57:55.730Z,39.69
2022-10-13T10:00:30.366Z,39.58
2022-10-13T10:03:23.868Z,39.00
2022-10-13T10:06:16.463Z,37.99
2022-10-13T10:09:12.441Z,37.75
2022-10-13T10:11:52.136Z,37.08
2022-10-13T10:14:33.579Z,36.48
2022-10-13T10:17:16.703Z,35.85
2022-10-13T10:19:52.346Z,36.50
2022-10-13T10:22:37.759Z,35.79
2022-10-13T10:25:38.131Z,36.78
2022-10-13T10:28:13.437Z,35.85
2022-10-13T10:31:14.273Z,35.41
2022-10-13T10:34:29.344Z,34.12
2022-10-13T10:37:35.591Z,33.95
2022-10-13T10:40:18.420Z,34.43
2022-10-13T10:43:24.848Z,33.66
2022-10-13T10:46:01.542Z,33.72
2022-10-13T10:48:39.238Z,33.89
2022-10-13T10:51:16.677Z,34.30
2022-10-13T10:53:58.257Z,33.56
2022-10-13T10:56:46.391Z,33.17
2022-10-13T10:59:35.269Z,33.76
2022-10-13T11:02:22.269Z,33.17
2022-10-13T11:05:06.081Z,33.52
2022-10-13T11:07:47.647Z,32.15
2022-10-13T11:10:30.013Z,33.58
2022-10-13T11:13:17.277Z,32.84
2022-10-13T11:15:52.237Z,32.55
2022-10-13T11:19:20.258Z,31.42
2022-10-13T11:22:10.435Z,30.81
2022-10-13T11:24:39.273Z,31.33
2022-10-13T11:27:42.079Z,31.76
2022-10-13T11:30:54.641Z,31.63
2022-10-13T11:33:40.328Z,30.29
2022-10-13T11:36:48.601Z,30.95
2022-10-13T11:39:28.468Z,30.35
2022-10-13T11:42:21.949Z,30.71
2022-10-13T11:45:00.578Z,30.10
2022-10-13T11:48:01.768Z,31.05
2022-10-13T11:50:53.619Z,30.69
2022-10-13T11:53:48.021Z,31.63
2022-10-13T11:56:48.464Z,31.21
2022-10-13T11:59:40.344Z,31.36
2022-10-13T12:02:10.489Z,31.88
2022-10-13T12:04:46.560Z,32.59
2022-10-13T12:07:22.183Z,31.99
2022-10-13T12:09:55.220Z,30.52
2022-10-13T12:12:34.376Z,31.54
2022-10-13T12:15:30.546Z,31.06
2022-10-13T12:18:02.703Z,31.16
2022-10-13T12:20:33.389Z,31.10
2022-10-13T12:23:05.503Z,30.90
2022-10-13T12:25:42.931Z,30.14
2022-10-13T12:28:23.524Z,30.82
2022-10-13T12:30:54.271Z,30.39
2022-10-13T12:33:34.881Z,29.97
2022-10-13T12:36:19.436Z,30.21
2022-10-13T12:38:55.658Z,29.66
2022-10-13T12:41:32.893Z,30.21
2022-10-13T12:44:08.339Z,30.86
2022-10-13T12:46:56.741Z,30.87
2022-10-13T12:49:30.282Z,30.48
2022-10-13T12:52:12.520Z,31.23
2022-10-13T12:54:52.838Z,31.72
2022-10-13T12:57:41.916Z,31.19
2022-10-13T13:00:27.347Z,31.90
2022-10-13T13:03:07.829Z,31.64
2022-10-13T13:05:52.937Z,31.16
2022-10-13T13:08:35.335Z,30.34
2022-10-13T13:11:07.559Z,29.54
2022-10-13T13:13:39.210Z,30.26
2022-10-13T13:16:19.344Z,30.63
2022-10-13T13:18:49.918Z,30.00
2022-10-13T13:21:20.515Z,30.84
2022-10-13T13:23:53.733Z,31.04
2022-10-13T13:26:24.507Z,32.37
2022-10-13T13:29:00.809Z,31.93
2022-10-13T13:31:41.015Z,31.51
2022-10-13T13:34:08.948Z,31.06
2022-10-13T13:36:40.743Z,31.21
2022-10-13T13:39:19.697Z,30.59
2022-10-13T13:41:47.730Z,30.51
2022-10-13T13:44:18.475Z,30.14
2022-10-13T13:46:48.953Z,30.61
2022-10-13T13:49:19.847Z,30.01
2022-10-13T13:51:50.733Z,30.53
2022-10-13T13:54:22.733Z,29.63
2022-10-13T13:56:58.599Z,29.67
2022-10-13T13:59:27.323Z,30.11
2022-10-13T14:01:58.019Z,29.32
2022-10-13T14:04:30.586Z,30.24
2022-10-13T14:07:01.168Z,29.56
2022-10-13T14:09:31.845Z,29.41
2022-10-13T14:12:04.352Z,30.57
2022-10-13T14:14:39.583Z,29.70
2022-10-13T14:17:13.111Z,30.99
2022-10-13T14:19:55.110Z,30.69
2022-10-13T14:22:42.449Z,31.06
2022-10-13T14:25:31.122Z,32.16
2022-10-13T14:28:12.555Z,33.59
2022-10-13T14:31:10.227Z,33.97
2022-10-13T14:33:39.228Z,34.49
2022-10-13T14:39:12.441Z,35.92
2022-10-13T14:41:48.131Z,37.35
2022-10-13T14:44:22.123Z,37.42
2022-10-13T14:46:56.044Z,37.34
2022-10-13T14:49:34.128Z,38.17
2022-10-13T14:52:07.348Z,38.24
2022-10-13T14:55:07.911Z,37.91
2022-10-13T14:57:41.180Z,38.13
2022-10-13T15:00:31.112Z,38.04
2022-10-13T15:03:22.615Z,37.44
2022-10-13T15:06:11.595Z,38.02
2022-10-13T15:09:03.465Z,37.30
2022-10-13T15:11:52.645Z,38.21
2022-10-13T15:14:41.948Z,37.36
2022-10-13T15:17:32.334Z,36.73
2022-10-13T15:20:22.724Z,36.81
2022-10-13T15:22:57.125Z,35.54
2022-10-13T15:25:24.838Z,35.72
2022-10-13T15:28:01.180Z,35.81
2022-10-13T15:30:39.238Z,35.69
2022-10-13T15:33:23.352Z,35.84
2022-10-13T15:36:08.829Z,35.60
2022-10-13T15:39:09.863Z,36.53
2022-10-13T15:41:42.050Z,36.23
2022-10-13T15:44:09.773Z,36.15
2022-10-13T15:47:06.641Z,37.23
2022-10-13T15:49:41.626Z,37.34
2022-10-13T15:52:20.548Z,38.02
2022-10-13T15:54:57.135Z,37.90
2022-10-13T15:57:31.349Z,38.03
2022-10-13T16:03:18.643Z,38.71
2022-10-13T16:06:09.063Z,39.08
2022-10-13T16:09:03.168Z,39.22
2022-10-13T16:11:46.572Z,39.53
2022-10-13T16:14:30.001Z,39.40
2022-10-13T16:17:07.295Z,39.43
2022-10-13T16:20:01.921Z,40.79
2022-10-13T16:22:41.788Z,40.74
2022-10-13T16:25:18.894Z,40.81
2022-10-13T16:28:04.690Z,41.57
2022-10-13T16:30:49.137Z,41.50
2022-10-13T16:33:19.284Z,41.54
2022-10-13T16:35:46.827Z,42.18
2022-10-13T16:38:14.822Z,42.48
2022-10-13T16:40:42.754Z,42.55
2022-10-13T16:43:10.838Z,42.81
2022-10-13T16:45:59.274Z,43.58
2022-10-13T16:48:31.345Z,44.13
2022-10-13T16:51:01.596Z,44.56
2022-10-13T16:53:33.359Z,43.92
2022-10-13T16:56:01.480Z,44.46
2022-10-13T16:58:33.895Z,44.56
2022-10-13T17:01:09.836Z,44.71
2022-10-13T17:03:39.534Z,45.08
2022-10-13T17:06:11.329Z,45.64
2022-10-13T17:08:39.506Z,46.08
2022-10-13T17:11:07.982Z,45.08
2022-10-13T17:13:39.757Z,45.43
2022-10-13T17:16:07.428Z,44.45
2022-10-13T17:18:35.002Z,45.04
2022-10-13T17:21:06.254Z,45.29
2022-10-13T17:23:34.079Z,44.61
2022-10-13T17:26:04.221Z,44.66
2022-10-13T17:28:36.619Z,44.29
2022-10-13T17:31:14.171Z,44.11
2022-10-13T17:33:45.438Z,43.93
2022-10-13T17:36:16.641Z,43.59
2022-10-13T17:38:48.682Z,44.47
2022-10-13T17:41:17.916Z,44.82
2022-10-13T17:43:54.705Z,44.80
2022-10-13T17:46:38.337Z,45.05
2022-10-13T17:49:11.682Z,45.15
2022-10-13T17:51:41.446Z,44.91
2022-10-13T17:54:15.758Z,44.87
2022-10-13T17:56:44.694Z,45.73
2022-10-13T17:59:16.716Z,45.84
2022-10-13T18:01:46.337Z,46.54
2022-10-13T18:04:20.918Z,45.99
2022-10-13T18:06:49.061Z,45.91
2022-10-13T18:09:20.886Z,47.00
2022-10-13T18:11:53.090Z,47.03
2022-10-13T18:14:23.270Z,46.97
2022-10-13T18:16:59.782Z,46.29
2022-10-13T18:19:36.540Z,46.59
2022-10-13T18:22:09.850Z,46.47
2022-10-13T18:24:42.944Z,46.69
2022-10-13T18:27:11.928Z,47.07
2022-10-13T18:29:44.052Z,48.48
2022-10-13T18:32:13.478Z,47.63
2022-10-13T18:34:43.318Z,47.18
2022-10-13T18:37:13.448Z,46.47
2022-10-13T18:39:46.679Z,46.89
2022-10-13T18:42:19.909Z,47.12
2022-10-13T18:44:57.611Z,47.49
2022-10-13T18:47:29.055Z,47.87
2022-10-13T18:49:56.928Z,47.61
2022-10-13T18:52:29.521Z,47.06
2022-10-13T18:55:03.460Z,48.28
2022-10-13T18:58:08.251Z,49.12
2022-10-13T19:00:38.549Z,48.35
2022-10-13T19:03:11.246Z,48.21
2022-10-13T19:05:40.349Z,49.41
2022-10-13T19:08:21.348Z,48.99
2022-10-13T19:10:52.716Z,48.13
2022-10-13T19:13:31.951Z,49.49
2022-10-13T19:16:01.611Z,48.23
2022-10-13T19:18:36.589Z,49.39
2022-10-13T19:21:07.400Z,49.56
2022-10-13T19:23:38.331Z,48.97
2022-10-13T19:26:32.044Z,49.81
2022-10-13T19:29:24.834Z,50.37
2022-10-13T19:31:52.756Z,50.09
2022-10-13T19:37:26.990Z,50.71
2022-10-13T19:39:55.178Z,50.29
2022-10-13T19:42:27.860Z,51.41
2022-10-13T19:45:06.474Z,50.86
2022-10-13T19:47:53.536Z,52.04
2022-10-13T19:50:30.831Z,51.60
2022-10-13T19:52:59.340Z,51.63
2022-10-13T19:55:33.463Z,52.82
2022-10-13T19:58:01.802Z,51.11
2022-10-13T20:00:36.059Z,52.12
2022-10-13T20:03:08.080Z,52.05
2022-10-13T20:05:40.663Z,51.54
2022-10-13T20:08:14.869Z,51.62
2022-10-13T20:10:45.235Z,51.13
2022-10-13T20:13:12.998Z,51.13
2022-10-13T20:15:48.891Z,51.21
2022-10-13T20:18:29.331Z,51.44
2022-10-13T20:21:09.803Z,51.77
2022-10-13T20:23:45.937Z,51.08
2022-10-13T20:29:13.349Z,51.96
2022-10-13T20:31:49.280Z,51.39
2022-10-13T20:34:24.971Z,51.17
2022-10-13T20:37:03.943Z,51.19
2022-10-13T20:39:49.282Z,50.40
2022-10-13T20:42:25.583Z,50.01
2022-10-13T20:44:59.416Z,49.98
2022-10-13T20:47:33.805Z,50.25
2022-10-13T20:50:10.379Z,49.99
2022-10-13T20:52:47.011Z,49.90
2022-10-13T20:55:31.715Z,49.87
2022-10-13T20:58:12.618Z,50.14
2022-10-13T21:01:12.460Z,50.13
2022-10-13T21:03:48.569Z,49.98
2022-10-13T21:06:31.721Z,49.83
2022-10-13T21:09:12.221Z,49.35
2022-10-13T21:11:48.479Z,49.13
2022-10-13T21:14:32.363Z,49.68
2022-10-13T21:17:29.214Z,49.99
2022-10-13T21:20:36.848Z,50.66
2022-10-13T21:23:23.972Z,49.89
2022-10-13T21:26:06.109Z,49.99
2022-10-13T21:28:57.960Z,49.62
2022-10-13T21:31:40.161Z,49.44
2022-10-13T21:34:27.301Z,49.20
2022-10-13T21:37:24.063Z,49.34
2022-10-13T21:40:11.389Z,49.73
2022-10-13T21:42:58.190Z,48.87
2022-10-13T21:45:27.399Z,49.08
2022-10-13T21:48:03.504Z,49.01
2022-10-13T21:50:39.888Z,49.88
2022-10-13T21:53:12.151Z,49.19
2022-10-13T21:55:45.894Z,49.72
2022-10-13T21:58:23.173Z,49.60
2022-10-13T22:01:04.665Z,49.56
2022-10-13T22:03:38.667Z,49.53
2022-10-13T22:06:27.715Z,49.77
2022-10-13T22:09:07.123Z,50.04
2022-10-13T22:11:46.512Z,50.47
2022-10-13T22:14:22.154Z,50.20
2022-10-13T22:17:10.922Z,49.96
2022-10-13T22:19:43.246Z,50.61
2022-10-13T22:22:17.826Z,50.44
2022-10-13T22:24:54.081Z,50.68
2022-10-13T22:27:28.192Z,51.04
2022-10-13T22:29:58.527Z,50.57
2022-10-13T22:32:37.383Z,50.72
2022-10-13T22:35:13.040Z,51.03
2022-10-13T22:37:48.732Z,50.88
2022-10-13T22:40:22.597Z,50.93
2022-10-13T22:42:59.055Z,51.17
2022-10-13T22:45:32.818Z,50.64
2022-10-13T22:48:05.092Z,51.46
2022-10-13T22:50:34.849Z,51.33
2022-10-13T22:55:48.913Z,52.14
2022-10-13T22:58:22.619Z,51.22
2022-10-13T23:00:50.918Z,51.14
2022-10-13T23:03:21.146Z,51.31
2022-10-13T23:05:57.643Z,51.54
2022-10-13T23:08:29.129Z,51.62
2022-10-13T23:10:58.689Z,51.80
2022-10-13T23:13:30.132Z,51.70
2022-10-13T23:16:23.759Z,51.63
2022-10-13T23:19:01.133Z,51.81
2022-10-13T23:21:37.068Z,51.86
2022-10-13T23:24:07.558Z,51.50
2022-10-13T23:26:49.945Z,51.50
2022-10-13T23:29:17.668Z,51.70
2022-10-13T23:31:47.805Z,52.08
2022-10-13T23:34:20.370Z,51.98
2022-10-13T23:36:52.335Z,51.76
2022-10-13T23:39:22.940Z,52.06
2022-10-13T23:41:57.053Z,51.96
2022-10-13T23:44:29.782Z,52.29
2022-10-13T23:46:58.263Z,52.05
2022-10-13T23:49:31.592Z,51.64
2022-10-13T23:52:08.564Z,52.25
2022-10-13T23:54:41.779Z,52.32
2022-10-13T23:57:10.285Z,52.37
